sensor_id;sensor_type;location;lat;lon;timestamp;P1;durP1;ratioP1;P2;durP2;ratioP2
69463;SDS011;56665;41.106;16.688;2022-09-03T00:02:08;3.63;;;1.90;;
69463;SDS011;56665;41.106;16.688;2022-09-03T00:15:11;4.68;;;1.90;;
69463;SDS011;56665;41.106;16.688;2022-09-03T00:18:19;4.55;;;2.00;;
69463;SDS011;56665;41.106;16.688;2022-09-03T00:21:31;5.18;;;2.00;;
69463;SDS011;56665;41.106;16.688;2022-09-03T00:24:38;3.75;;;1.60;;
69463;SDS011;56665;41.106;16.688;2022-09-03T00:27:47;3.40;;;1.80;;
69463;SDS011;56665;41.106;16.688;2022-09-03T00:31:04;4.30;;;1.60;;
69463;SDS011;56665;41.106;16.688;2022-09-03T00:34:36;3.70;;;1.70;;
69463;SDS011;56665;41.106;16.688;2022-09-03T00:37:43;3.05;;;2.00;;
69463;SDS011;56665;41.106;16.688;2022-09-03T00:44:32;5.72;;;2.05;;
69463;SDS011;56665;41.106;16.688;2022-09-03T00:47:52;4.28;;;2.25;;
69463;SDS011;56665;41.106;16.688;2022-09-03T00:58:02;3.22;;;2.03;;
69463;SDS011;56665;41.106;16.688;2022-09-03T01:01:37;4.60;;;2.20;;
69463;SDS011;56665;41.106;16.688;2022-09-03T01:05:21;4.18;;;2.05;;
69463;SDS011;56665;41.106;16.688;2022-09-03T01:18:46;5.22;;;2.90;;
69463;SDS011;56665;41.106;16.688;2022-09-03T01:22:04;5.95;;;2.67;;
69463;SDS011;56665;41.106;16.688;2022-09-03T01:35:47;6.45;;;2.38;;
69463;SDS011;56665;41.106;16.688;2022-09-03T01:39:07;5.63;;;2.50;;
69463;SDS011;56665;41.106;16.688;2022-09-03T01:42:37;4.25;;;2.50;;
69463;SDS011;56665;41.106;16.688;2022-09-03T01:46:08;5.03;;;2.60;;
69463;SDS011;56665;41.106;16.688;2022-09-03T01:49:30;3.10;;;2.30;;
69463;SDS011;56665;41.106;16.688;2022-09-03T01:59:08;3.75;;;2.55;;
69463;SDS011;56665;41.106;16.688;2022-09-03T02:02:15;4.30;;;2.50;;
69463;SDS011;56665;41.106;16.688;2022-09-03T02:05:24;4.05;;;2.58;;
69463;SDS011;56665;41.106;16.688;2022-09-03T02:08:32;5.18;;;2.67;;
69463;SDS011;56665;41.106;16.688;2022-09-03T02:11:35;4.15;;;2.35;;
69463;SDS011;56665;41.106;16.688;2022-09-03T02:14:39;4.50;;;2.80;;
69463;SDS011;56665;41.106;16.688;2022-09-03T02:17:43;7.35;;;3.13;;
69463;SDS011;56665;41.106;16.688;2022-09-03T02:20:51;4.80;;;2.40;;
69463;SDS011;56665;41.106;16.688;2022-09-03T02:23:55;5.43;;;2.88;;
69463;SDS011;56665;41.106;16.688;2022-09-03T02:26:59;4.75;;;2.40;;
69463;SDS011;56665;41.106;16.688;2022-09-03T02:30:03;6.60;;;3.30;;
69463;SDS011;56665;41.106;16.688;2022-09-03T02:33:08;4.57;;;2.88;;
69463;SDS011;56665;41.106;16.688;2022-09-03T02:36:13;6.53;;;2.72;;
69463;SDS011;56665;41.106;16.688;2022-09-03T02:39:19;4.28;;;2.70;;
69463;SDS011;56665;41.106;16.688;2022-09-03T02:42:22;4.75;;;2.72;;
69463;SDS011;56665;41.106;16.688;2022-09-03T02:45:27;5.60;;;3.20;;
69463;SDS011;56665;41.106;16.688;2022-09-03T02:48:31;6.47;;;2.78;;
69463;SDS011;56665;41.106;16.688;2022-09-03T02:51:37;6.10;;;2.67;;
69463;SDS011;56665;41.106;16.688;2022-09-03T02:54:42;6.82;;;3.40;;
69463;SDS011;56665;41.106;16.688;2022-09-03T02:57:47;5.30;;;3.20;;
69463;SDS011;56665;41.106;16.688;2022-09-03T03:00:51;5.13;;;3.30;;
69463;SDS011;56665;41.106;16.688;2022-09-03T03:03:57;5.97;;;3.20;;
69463;SDS011;56665;41.106;16.688;2022-09-03T03:07:01;4.35;;;2.70;;
69463;SDS011;56665;41.106;16.688;2022-09-03T03:10:05;5.47;;;3.00;;
69463;SDS011;56665;41.106;16.688;2022-09-03T03:13:09;5.25;;;3.17;;
69463;SDS011;56665;41.106;16.688;2022-09-03T03:16:14;5.82;;;3.08;;
69463;SDS011;56665;41.106;16.688;2022-09-03T03:19:18;4.28;;;2.97;;
69463;SDS011;56665;41.106;16.688;2022-09-03T03:22:22;5.20;;;2.90;;
69463;SDS011;56665;41.106;16.688;2022-09-03T03:25:26;4.65;;;2.40;;
69463;SDS011;56665;41.106;16.688;2022-09-03T03:28:30;4.45;;;2.45;;
69463;SDS011;56665;41.106;16.688;2022-09-03T03:31:37;3.95;;;2.78;;
69463;SDS011;56665;41.106;16.688;2022-09-03T03:34:41;6.75;;;2.80;;
69463;SDS011;56665;41.106;16.688;2022-09-03T03:37:44;5.25;;;3.13;;
69463;SDS011;56665;41.106;16.688;2022-09-03T03:40:48;6.72;;;3.30;;
69463;SDS011;56665;41.106;16.688;2022-09-03T03:43:56;7.07;;;3.40;;
69463;SDS011;56665;41.106;16.688;2022-09-03T03:47:01;6.13;;;3.05;;
69463;SDS011;56665;41.106;16.688;2022-09-03T03:50:05;4.80;;;3.50;;
69463;SDS011;56665;41.106;16.688;2022-09-03T03:53:09;4.95;;;3.55;;
69463;SDS011;56665;41.106;16.688;2022-09-03T03:56:14;6.95;;;3.80;;
69463;SDS011;56665;41.106;16.688;2022-09-03T03:59:19;6.97;;;3.15;;
69463;SDS011;56665;41.106;16.688;2022-09-03T04:02:24;5.72;;;3.30;;
69463;SDS011;56665;41.106;16.688;2022-09-03T04:05:28;7.88;;;3.30;;
69463;SDS011;56665;41.106;16.688;2022-09-03T04:08:33;5.13;;;2.83;;
69463;SDS011;56665;41.106;16.688;2022-09-03T04:11:39;10.20;;;3.08;;
69463;SDS011;56665;41.106;16.688;2022-09-03T04:14:44;4.82;;;3.40;;
69463;SDS011;56665;41.106;16.688;2022-09-03T04:17:48;8.45;;;3.17;;
69463;SDS011;56665;41.106;16.688;2022-09-03T04:20:52;4.90;;;3.13;;
69463;SDS011;56665;41.106;16.688;2022-09-03T04:23:57;5.70;;;3.28;;
69463;SDS011;56665;41.106;16.688;2022-09-03T04:27:01;6.50;;;3.47;;
69463;SDS011;56665;41.106;16.688;2022-09-03T04:30:05;4.93;;;3.13;;
69463;SDS011;56665;41.106;16.688;2022-09-03T04:33:09;7.50;;;3.42;;
69463;SDS011;56665;41.106;16.688;2022-09-03T04:36:14;5.25;;;3.40;;
69463;SDS011;56665;41.106;16.688;2022-09-03T04:39:20;5.95;;;3.75;;
69463;SDS011;56665;41.106;16.688;2022-09-03T04:42:24;7.35;;;3.70;;
69463;SDS011;56665;41.106;16.688;2022-09-03T04:45:28;5.43;;;3.35;;
69463;SDS011;56665;41.106;16.688;2022-09-03T04:48:34;7.68;;;4.10;;
69463;SDS011;56665;41.106;16.688;2022-09-03T04:51:39;6.60;;;4.25;;
69463;SDS011;56665;41.106;16.688;2022-09-03T04:54:42;5.90;;;3.75;;
69463;SDS011;56665;41.106;16.688;2022-09-03T04:57:47;7.70;;;3.83;;
69463;SDS011;56665;41.106;16.688;2022-09-03T05:00:50;7.00;;;3.83;;
69463;SDS011;56665;41.106;16.688;2022-09-03T05:03:55;6.78;;;3.75;;
69463;SDS011;56665;41.106;16.688;2022-09-03T05:07:00;7.75;;;4.18;;
69463;SDS011;56665;41.106;16.688;2022-09-03T05:10:05;7.03;;;4.30;;
69463;SDS011;56665;41.106;16.688;2022-09-03T05:13:10;7.80;;;4.32;;
69463;SDS011;56665;41.106;16.688;2022-09-03T05:16:14;9.57;;;4.65;;
69463;SDS011;56665;41.106;16.688;2022-09-03T05:19:18;7.20;;;4.32;;
69463;SDS011;56665;41.106;16.688;2022-09-03T05:22:22;9.63;;;4.22;;
69463;SDS011;56665;41.106;16.688;2022-09-03T05:25:26;6.97;;;4.30;;
69463;SDS011;56665;41.106;16.688;2022-09-03T05:28:29;7.35;;;4.40;;
69463;SDS011;56665;41.106;16.688;2022-09-03T05:31:35;7.40;;;4.43;;
69463;SDS011;56665;41.106;16.688;2022-09-03T05:34:41;10.93;;;4.75;;
69463;SDS011;56665;41.106;16.688;2022-09-03T05:37:45;8.52;;;4.43;;
69463;SDS011;56665;41.106;16.688;2022-09-03T05:40:51;8.32;;;4.43;;
69463;SDS011;56665;41.106;16.688;2022-09-03T05:43:56;10.00;;;4.60;;
69463;SDS011;56665;41.106;16.688;2022-09-03T05:47:02;8.82;;;4.82;;
69463;SDS011;56665;41.106;16.688;2022-09-03T05:50:06;8.10;;;4.05;;
69463;SDS011;56665;41.106;16.688;2022-09-03T05:53:12;7.00;;;3.90;;
69463;SDS011;56665;41.106;16.688;2022-09-03T05:56:17;7.00;;;4.35;;
69463;SDS011;56665;41.106;16.688;2022-09-03T05:59:24;8.35;;;3.83;;
69463;SDS011;56665;41.106;16.688;2022-09-03T06:02:28;5.88;;;3.83;;
69463;SDS011;56665;41.106;16.688;2022-09-03T06:05:32;6.97;;;3.72;;
69463;SDS011;56665;41.106;16.688;2022-09-03T06:08:36;7.45;;;3.63;;
69463;SDS011;56665;41.106;16.688;2022-09-03T06:11:41;4.88;;;2.80;;
69463;SDS011;56665;41.106;16.688;2022-09-03T06:14:45;5.57;;;3.50;;
69463;SDS011;56665;41.106;16.688;2022-09-03T06:17:49;5.63;;;3.47;;
69463;SDS011;56665;41.106;16.688;2022-09-03T06:20:56;5.85;;;3.67;;
69463;SDS011;56665;41.106;16.688;2022-09-03T06:24:02;7.22;;;3.40;;
69463;SDS011;56665;41.106;16.688;2022-09-03T06:27:06;5.88;;;3.65;;
69463;SDS011;56665;41.106;16.688;2022-09-03T06:30:10;5.15;;;3.00;;
69463;SDS011;56665;41.106;16.688;2022-09-03T06:33:14;6.13;;;3.60;;
69463;SDS011;56665;41.106;16.688;2022-09-03T06:36:21;6.80;;;3.30;;
69463;SDS011;56665;41.106;16.688;2022-09-03T06:39:26;6.05;;;3.10;;
69463;SDS011;56665;41.106;16.688;2022-09-03T06:42:31;4.53;;;3.33;;
69463;SDS011;56665;41.106;16.688;2022-09-03T06:45:36;6.32;;;2.90;;
69463;SDS011;56665;41.106;16.688;2022-09-03T06:48:41;4.90;;;3.25;;
69463;SDS011;56665;41.106;16.688;2022-09-03T06:51:45;6.72;;;3.22;;
69463;SDS011;56665;41.106;16.688;2022-09-03T06:54:48;5.65;;;2.75;;
69463;SDS011;56665;41.106;16.688;2022-09-03T06:57:54;3.80;;;2.58;;
69463;SDS011;56665;41.106;16.688;2022-09-03T07:01:03;4.28;;;2.80;;
69463;SDS011;56665;41.106;16.688;2022-09-03T07:04:09;6.63;;;3.85;;
69463;SDS011;56665;41.106;16.688;2022-09-03T07:07:13;8.10;;;5.30;;
69463;SDS011;56665;41.106;16.688;2022-09-03T07:10:19;11.13;;;6.85;;
69463;SDS011;56665;41.106;16.688;2022-09-03T07:13:23;11.65;;;6.32;;
69463;SDS011;56665;41.106;16.688;2022-09-03T07:16:32;10.15;;;5.72;;
69463;SDS011;56665;41.106;16.688;2022-09-03T07:19:37;12.10;;;5.40;;
69463;SDS011;56665;41.106;16.688;2022-09-03T07:22:41;9.52;;;5.57;;
69463;SDS011;56665;41.106;16.688;2022-09-03T07:25:51;9.45;;;5.82;;
69463;SDS011;56665;41.106;16.688;2022-09-03T07:28:56;8.52;;;5.97;;
69463;SDS011;56665;41.106;16.688;2022-09-03T07:32:01;8.98;;;5.60;;
69463;SDS011;56665;41.106;16.688;2022-09-03T07:35:05;7.55;;;5.60;;
69463;SDS011;56665;41.106;16.688;2022-09-03T07:38:10;7.45;;;4.93;;
69463;SDS011;56665;41.106;16.688;2022-09-03T07:41:14;6.60;;;4.38;;
69463;SDS011;56665;41.106;16.688;2022-09-03T07:44:18;6.43;;;3.90;;
69463;SDS011;56665;41.106;16.688;2022-09-03T07:47:22;4.97;;;3.70;;
69463;SDS011;56665;41.106;16.688;2022-09-03T07:50:28;6.20;;;3.75;;
69463;SDS011;56665;41.106;16.688;2022-09-03T07:53:40;6.28;;;3.58;;
69463;SDS011;56665;41.106;16.688;2022-09-03T07:56:43;4.75;;;2.95;;
69463;SDS011;56665;41.106;16.688;2022-09-03T07:59:47;4.53;;;2.63;;
69463;SDS011;56665;41.106;16.688;2022-09-03T08:02:51;3.17;;;1.92;;
69463;SDS011;56665;41.106;16.688;2022-09-03T08:06:01;3.50;;;2.60;;
69463;SDS011;56665;41.106;16.688;2022-09-03T08:09:08;6.60;;;2.72;;
69463;SDS011;56665;41.106;16.688;2022-09-03T08:12:13;4.97;;;2.60;;
69463;SDS011;56665;41.106;16.688;2022-09-03T08:15:17;4.32;;;2.10;;
69463;SDS011;56665;41.106;16.688;2022-09-03T08:18:22;3.65;;;2.20;;
69463;SDS011;56665;41.106;16.688;2022-09-03T08:21:26;2.80;;;1.90;;
69463;SDS011;56665;41.106;16.688;2022-09-03T08:24:30;3.47;;;1.80;;
69463;SDS011;56665;41.106;16.688;2022-09-03T08:27:35;4.53;;;2.50;;
69463;SDS011;56665;41.106;16.688;2022-09-03T08:30:38;6.15;;;2.40;;
69463;SDS011;56665;41.106;16.688;2022-09-03T08:33:44;3.97;;;2.30;;
69463;SDS011;56665;41.106;16.688;2022-09-03T08:36:51;4.25;;;2.40;;
69463;SDS011;56665;41.106;16.688;2022-09-03T08:39:56;4.15;;;2.90;;
69463;SDS011;56665;41.106;16.688;2022-09-03T08:43:13;4.35;;;2.88;;
69463;SDS011;56665;41.106;16.688;2022-09-03T08:46:20;5.45;;;3.25;;
69463;SDS011;56665;41.106;16.688;2022-09-03T08:49:45;4.15;;;2.50;;
69463;SDS011;56665;41.106;16.688;2022-09-03T08:56:27;5.15;;;3.10;;
69463;SDS011;56665;41.106;16.688;2022-09-03T08:59:32;3.63;;;2.95;;
69463;SDS011;56665;41.106;16.688;2022-09-03T09:09:45;5.32;;;2.83;;
69463;SDS011;56665;41.106;16.688;2022-09-03T09:13:12;6.47;;;3.33;;
69463;SDS011;56665;41.106;16.688;2022-09-03T09:16:49;4.90;;;2.70;;
69463;SDS011;56665;41.106;16.688;2022-09-03T09:20:24;5.78;;;2.80;;
69463;SDS011;56665;41.106;16.688;2022-09-03T09:23:31;4.97;;;2.80;;
69463;SDS011;56665;41.106;16.688;2022-09-03T09:26:39;4.97;;;3.08;;
69463;SDS011;56665;41.106;16.688;2022-09-03T09:29:48;6.68;;;3.13;;
69463;SDS011;56665;41.106;16.688;2022-09-03T09:32:52;5.03;;;2.80;;
69463;SDS011;56665;41.106;16.688;2022-09-03T09:36:01;5.35;;;3.17;;
69463;SDS011;56665;41.106;16.688;2022-09-03T09:39:07;8.43;;;2.53;;
69463;SDS011;56665;41.106;16.688;2022-09-03T09:42:12;8.55;;;2.72;;
69463;SDS011;56665;41.106;16.688;2022-09-03T09:45:16;4.15;;;2.78;;
69463;SDS011;56665;41.106;16.688;2022-09-03T09:48:29;6.38;;;3.15;;
69463;SDS011;56665;41.106;16.688;2022-09-03T09:51:36;4.95;;;2.58;;
69463;SDS011;56665;41.106;16.688;2022-09-03T09:54:40;6.32;;;2.63;;
69463;SDS011;56665;41.106;16.688;2022-09-03T09:57:52;3.42;;;2.55;;
69463;SDS011;56665;41.106;16.688;2022-09-03T10:00:57;3.85;;;2.55;;
69463;SDS011;56665;41.106;16.688;2022-09-03T10:04:24;6.13;;;2.42;;
69463;SDS011;56665;41.106;16.688;2022-09-03T10:07:29;5.38;;;2.50;;
69463;SDS011;56665;41.106;16.688;2022-09-03T10:10:35;3.78;;;2.38;;
69463;SDS011;56665;41.106;16.688;2022-09-03T10:13:46;4.82;;;2.30;;
69463;SDS011;56665;41.106;16.688;2022-09-03T10:16:55;4.97;;;2.75;;
69463;SDS011;56665;41.106;16.688;2022-09-03T10:27:19;5.40;;;2.30;;
69463;SDS011;56665;41.106;16.688;2022-09-03T10:30:24;3.72;;;1.90;;
69463;SDS011;56665;41.106;16.688;2022-09-03T10:33:31;4.20;;;2.20;;
69463;SDS011;56665;41.106;16.688;2022-09-03T10:47:08;4.00;;;2.00;;
69463;SDS011;56665;41.106;16.688;2022-09-03T10:50:17;4.75;;;2.20;;
69463;SDS011;56665;41.106;16.688;2022-09-03T10:53:29;5.15;;;2.33;;
69463;SDS011;56665;41.106;16.688;2022-09-03T11:00:34;4.65;;;1.92;;
69463;SDS011;56665;41.106;16.688;2022-09-03T11:03:51;3.72;;;2.42;;
69463;SDS011;56665;41.106;16.688;2022-09-03T11:07:07;3.17;;;1.95;;
69463;SDS011;56665;41.106;16.688;2022-09-03T11:13:23;6.07;;;2.20;;
69463;SDS011;56665;41.106;16.688;2022-09-03T11:16:50;3.85;;;2.10;;
69463;SDS011;56665;41.106;16.688;2022-09-03T11:23:28;3.53;;;2.10;;
69463;SDS011;56665;41.106;16.688;2022-09-03T11:26:39;4.65;;;1.80;;
69463;SDS011;56665;41.106;16.688;2022-09-03T11:29:49;3.10;;;1.88;;
69463;SDS011;56665;41.106;16.688;2022-09-03T11:33:06;4.50;;;1.90;;
69463;SDS011;56665;41.106;16.688;2022-09-03T11:36:12;4.45;;;2.28;;
69463;SDS011;56665;41.106;16.688;2022-09-03T11:42:37;4.40;;;2.40;;
69463;SDS011;56665;41.106;16.688;2022-09-03T11:45:44;6.13;;;2.10;;
69463;SDS011;56665;41.106;16.688;2022-09-03T11:48:48;3.30;;;2.10;;
69463;SDS011;56665;41.106;16.688;2022-09-03T11:52:00;3.88;;;2.05;;
69463;SDS011;56665;41.106;16.688;2022-09-03T11:55:08;3.97;;;2.15;;
69463;SDS011;56665;41.106;16.688;2022-09-03T11:58:35;3.75;;;2.17;;
69463;SDS011;56665;41.106;16.688;2022-09-03T12:08:59;3.83;;;2.25;;
69463;SDS011;56665;41.106;16.688;2022-09-03T12:15:57;4.78;;;2.10;;
69463;SDS011;56665;41.106;16.688;2022-09-03T12:19:13;8.55;;;2.35;;
69463;SDS011;56665;41.106;16.688;2022-09-03T12:22:41;5.10;;;2.20;;
69463;SDS011;56665;41.106;16.688;2022-09-03T12:25:45;3.45;;;2.30;;
69463;SDS011;56665;41.106;16.688;2022-09-03T12:28:50;6.32;;;2.33;;
69463;SDS011;56665;41.106;16.688;2022-09-03T12:32:08;3.25;;;2.00;;
69463;SDS011;56665;41.106;16.688;2022-09-03T12:35:22;4.13;;;2.15;;
69463;SDS011;56665;41.106;16.688;2022-09-03T12:38:28;4.38;;;2.22;;
69463;SDS011;56665;41.106;16.688;2022-09-03T12:41:34;4.53;;;2.22;;
69463;SDS011;56665;41.106;16.688;2022-09-03T12:44:39;3.78;;;2.42;;
69463;SDS011;56665;41.106;16.688;2022-09-03T12:47:43;4.43;;;2.40;;
69463;SDS011;56665;41.106;16.688;2022-09-03T12:50:59;3.05;;;2.00;;
69463;SDS011;56665;41.106;16.688;2022-09-03T12:54:05;3.47;;;2.17;;
69463;SDS011;56665;41.106;16.688;2022-09-03T12:57:18;3.05;;;2.00;;
69463;SDS011;56665;41.106;16.688;2022-09-03T13:00:26;3.80;;;2.17;;
69463;SDS011;56665;41.106;16.688;2022-09-03T13:10:25;3.47;;;2.20;;
69463;SDS011;56665;41.106;16.688;2022-09-03T13:13:36;3.97;;;2.00;;
69463;SDS011;56665;41.106;16.688;2022-09-03T13:30:30;5.22;;;2.35;;
69463;SDS011;56665;41.106;16.688;2022-09-03T13:33:42;3.60;;;2.50;;
69463;SDS011;56665;41.106;16.688;2022-09-03T13:37:00;4.00;;;2.30;;
69463;SDS011;56665;41.106;16.688;2022-09-03T13:40:26;3.47;;;2.10;;
69463;SDS011;56665;41.106;16.688;2022-09-03T13:43:53;3.90;;;1.90;;
69463;SDS011;56665;41.106;16.688;2022-09-03T13:47:33;4.90;;;2.40;;
69463;SDS011;56665;41.106;16.688;2022-09-03T13:51:21;3.70;;;1.90;;
69463;SDS011;56665;41.106;16.688;2022-09-03T13:54:30;6.32;;;2.30;;
69463;SDS011;56665;41.106;16.688;2022-09-03T13:57:49;4.00;;;2.08;;
69463;SDS011;56665;41.106;16.688;2022-09-03T14:04:20;5.32;;;2.30;;
69463;SDS011;56665;41.106;16.688;2022-09-03T14:07:33;5.88;;;2.30;;
69463;SDS011;56665;41.106;16.688;2022-09-03T14:15:08;4.00;;;2.30;;
69463;SDS011;56665;41.106;16.688;2022-09-03T14:18:24;6.37;;;2.70;;
69463;SDS011;56665;41.106;16.688;2022-09-03T14:21:46;6.63;;;2.20;;
69463;SDS011;56665;41.106;16.688;2022-09-03T14:25:15;3.45;;;2.10;;
69463;SDS011;56665;41.106;16.688;2022-09-03T14:31:46;3.35;;;2.42;;
69463;SDS011;56665;41.106;16.688;2022-09-03T14:38:43;4.90;;;2.05;;
69463;SDS011;56665;41.106;16.688;2022-09-03T15:05:44;3.65;;;2.13;;
69463;SDS011;56665;41.106;16.688;2022-09-03T15:42:26;5.25;;;2.80;;
69463;SDS011;56665;41.106;16.688;2022-09-03T15:45:33;4.00;;;2.45;;
69463;SDS011;56665;41.106;16.688;2022-09-03T15:55:44;6.55;;;3.10;;
69463;SDS011;56665;41.106;16.688;2022-09-03T16:05:53;4.30;;;2.60;;
69463;SDS011;56665;41.106;16.688;2022-09-03T16:09:01;5.17;;;2.80;;
69463;SDS011;56665;41.106;16.688;2022-09-03T16:15:47;5.88;;;3.65;;
69463;SDS011;56665;41.106;16.688;2022-09-03T16:19:15;3.85;;;2.75;;
69463;SDS011;56665;41.106;16.688;2022-09-03T16:22:28;4.93;;;3.00;;
69463;SDS011;56665;41.106;16.688;2022-09-03T16:29:11;4.72;;;3.10;;
69463;SDS011;56665;41.106;16.688;2022-09-03T16:42:44;4.73;;;2.73;;
69463;SDS011;56665;41.106;16.688;2022-09-03T16:56:45;4.22;;;2.90;;
69463;SDS011;56665;41.106;16.688;2022-09-03T17:40:27;6.03;;;3.83;;
69463;SDS011;56665;41.106;16.688;2022-09-03T17:44:04;5.43;;;3.60;;
69463;SDS011;56665;41.106;16.688;2022-09-03T17:54:14;8.82;;;3.88;;
69463;SDS011;56665;41.106;16.688;2022-09-03T17:57:30;5.78;;;4.03;;
69463;SDS011;56665;41.106;16.688;2022-09-03T18:00:43;5.90;;;3.58;;
69463;SDS011;56665;41.106;16.688;2022-09-03T18:07:39;8.07;;;3.80;;
69463;SDS011;56665;41.106;16.688;2022-09-03T18:11:08;4.93;;;3.30;;
69463;SDS011;56665;41.106;16.688;2022-09-03T18:14:21;5.10;;;3.10;;
69463;SDS011;56665;41.106;16.688;2022-09-03T18:21:06;6.53;;;4.30;;
69463;SDS011;56665;41.106;16.688;2022-09-03T18:24:33;5.37;;;3.70;;
69463;SDS011;56665;41.106;16.688;2022-09-03T18:28:04;4.85;;;4.15;;
69463;SDS011;56665;41.106;16.688;2022-09-03T18:31:30;7.45;;;5.00;;
69463;SDS011;56665;41.106;16.688;2022-09-03T18:34:52;6.85;;;5.25;;
69463;SDS011;56665;41.106;16.688;2022-09-03T18:38:21;8.50;;;6.90;;
69463;SDS011;56665;41.106;16.688;2022-09-03T18:52:35;7.97;;;4.22;;
69463;SDS011;56665;41.106;16.688;2022-09-03T18:56:24;6.57;;;4.57;;
69463;SDS011;56665;41.106;16.688;2022-09-03T19:00:05;6.60;;;4.57;;
69463;SDS011;56665;41.106;16.688;2022-09-03T19:03:43;7.28;;;4.60;;
69463;SDS011;56665;41.106;16.688;2022-09-03T19:10:47;7.85;;;5.22;;
69463;SDS011;56665;41.106;16.688;2022-09-03T19:18:28;6.67;;;4.67;;
69463;SDS011;56665;41.106;16.688;2022-09-03T19:22:12;6.57;;;4.10;;
69463;SDS011;56665;41.106;16.688;2022-09-03T19:25:47;6.78;;;4.70;;
69463;SDS011;56665;41.106;16.688;2022-09-03T19:29:25;7.57;;;4.57;;
69463;SDS011;56665;41.106;16.688;2022-09-03T19:33:14;5.68;;;4.07;;
69463;SDS011;56665;41.106;16.688;2022-09-03T19:43:52;8.38;;;5.35;;
69463;SDS011;56665;41.106;16.688;2022-09-03T19:55:52;5.60;;;4.43;;
69463;SDS011;56665;41.106;16.688;2022-09-03T19:59:21;7.72;;;5.47;;
69463;SDS011;56665;41.106;16.688;2022-09-03T20:02:46;6.63;;;5.00;;
69463;SDS011;56665;41.106;16.688;2022-09-03T20:06:10;7.95;;;5.15;;
69463;SDS011;56665;41.106;16.688;2022-09-03T20:09:33;7.03;;;4.47;;
69463;SDS011;56665;41.106;16.688;2022-09-03T20:13:13;5.83;;;4.13;;
69463;SDS011;56665;41.106;16.688;2022-09-03T20:20:14;6.90;;;5.18;;
69463;SDS011;56665;41.106;16.688;2022-09-03T20:23:37;8.80;;;5.38;;
69463;SDS011;56665;41.106;16.688;2022-09-03T20:33:51;7.93;;;5.75;;
69463;SDS011;56665;41.106;16.688;2022-09-03T20:43:52;5.85;;;4.80;;
69463;SDS011;56665;41.106;16.688;2022-09-03T20:47:18;6.10;;;4.60;;
69463;SDS011;56665;41.106;16.688;2022-09-03T20:50:29;5.93;;;4.75;;
69463;SDS011;56665;41.106;16.688;2022-09-03T20:54:02;7.07;;;5.10;;
69463;SDS011;56665;41.106;16.688;2022-09-03T21:00:45;7.90;;;6.07;;
69463;SDS011;56665;41.106;16.688;2022-09-03T21:10:57;10.32;;;6.15;;
69463;SDS011;56665;41.106;16.688;2022-09-03T21:14:16;8.57;;;5.35;;
69463;SDS011;56665;41.106;16.688;2022-09-03T21:17:45;7.28;;;4.80;;
69463;SDS011;56665;41.106;16.688;2022-09-03T21:21:24;5.97;;;3.60;;
69463;SDS011;56665;41.106;16.688;2022-09-03T21:24:54;5.38;;;3.40;;
69463;SDS011;56665;41.106;16.688;2022-09-03T21:28:33;6.00;;;3.97;;
69463;SDS011;56665;41.106;16.688;2022-09-03T21:38:36;5.10;;;3.37;;
69463;SDS011;56665;41.106;16.688;2022-09-03T21:48:20;8.00;;;3.47;;
69463;SDS011;56665;41.106;16.688;2022-09-03T21:51:32;5.47;;;3.53;;
69463;SDS011;56665;41.106;16.688;2022-09-03T21:54:45;6.63;;;3.47;;
69463;SDS011;56665;41.106;16.688;2022-09-03T22:01:06;5.63;;;4.20;;
69463;SDS011;56665;41.106;16.688;2022-09-03T22:04:16;7.68;;;4.40;;
69463;SDS011;56665;41.106;16.688;2022-09-03T22:07:35;7.32;;;4.63;;
69463;SDS011;56665;41.106;16.688;2022-09-03T22:14:14;8.07;;;4.40;;
69463;SDS011;56665;41.106;16.688;2022-09-03T22:20:46;6.68;;;3.90;;
69463;SDS011;56665;41.106;16.688;2022-09-03T22:24:05;5.45;;;3.88;;
69463;SDS011;56665;41.106;16.688;2022-09-03T22:31:14;6.72;;;4.53;;
69463;SDS011;56665;41.106;16.688;2022-09-03T22:41:36;10.75;;;5.00;;
69463;SDS011;56665;41.106;16.688;2022-09-03T22:45:07;7.60;;;3.83;;
69463;SDS011;56665;41.106;16.688;2022-09-03T22:55:19;7.10;;;4.40;;
69463;SDS011;56665;41.106;16.688;2022-09-03T22:58:26;6.82;;;4.00;;
69463;SDS011;56665;41.106;16.688;2022-09-03T23:02:02;5.33;;;3.27;;
69463;SDS011;56665;41.106;16.688;2022-09-03T23:08:44;5.53;;;3.40;;
69463;SDS011;56665;41.106;16.688;2022-09-03T23:11:53;6.30;;;3.78;;
69463;SDS011;56665;41.106;16.688;2022-09-03T23:15:02;8.25;;;4.00;;
69463;SDS011;56665;41.106;16.688;2022-09-03T23:18:10;5.77;;;3.80;;
69463;SDS011;56665;41.106;16.688;2022-09-03T23:21:21;5.70;;;3.95;;
69463;SDS011;56665;41.106;16.688;2022-09-03T23:24:39;7.80;;;4.00;;
69463;SDS011;56665;41.106;16.688;2022-09-03T23:27:49;6.80;;;3.90;;
69463;SDS011;56665;41.106;16.688;2022-09-03T23:31:10;7.72;;;4.15;;
69463;SDS011;56665;41.106;16.688;2022-09-03T23:34:25;5.20;;;3.63;;
69463;SDS011;56665;41.106;16.688;2022-09-03T23:40:53;5.93;;;3.80;;
69463;SDS011;56665;41.106;16.688;2022-09-03T23:44:02;6.38;;;3.67;;
69463;SDS011;56665;41.106;16.688;2022-09-03T23:57:36;4.90;;;3.80;;
